Time;durP1;ratioP1;P1;durP2;ratioP2;P2;SDS_P1;SDS_P2;PMS_P1;PMS_P2;Temp;Humidity;BMP_temperature;BMP_pressure;BME280_temperature;BME280_humidity;BME280_pressure;Samples;Min_cycle;Max_cycle;Signal;HPM_P1;HPM_P2
2022/07/30 04:22:50;;;;;;;8.57;6.70;;;;;;;16.53;90.13;100376.31;5109285;27;20334;-68
2022/07/30 04:25:16;;;;;;;;;;;;;;;16.54;89.70;100377.16;5142787;27;20032;-69
2022/07/30 04:27:43;;;;;;;9.32;7.35;;;;;;;16.58;90.15;100374.88;5109274;28;19912;-69
2022/07/30 04:30:10;;;;;;;12.70;7.75;;;;;;;16.57;90.11;100381.31;5107718;28;20035;-69
2022/07/30 04:32:37;;;;;;;11.32;7.85;;;;;;;16.58;89.87;100382.94;5108281;28;20044;-70
2022/07/30 04:35:08;;;;;;;12.25;8.27;;;;;;;16.64;89.60;100388.31;5109282;28;20048;-70
2022/07/30 04:38:02;;;;;;;14.05;7.97;;;;;;;16.65;89.07;100384.59;5103209;28;20101;-69
2022/07/30 04:40:30;;;;;;;12.90;8.35;;;;;;;16.70;88.60;100392.06;5107302;28;20124;-70
2022/07/30 04:42:56;;;;;;;11.60;8.17;;;;;;;16.74;88.11;100394.13;5090782;28;20039;-69
2022/07/30 04:45:22;;;;;;;15.30;8.85;;;;;;;16.79;87.89;100399.69;5107622;28;20278;-69
2022/07/30 04:47:53;;;;;;;11.68;7.65;;;;;;;16.90;86.68;100395.53;5107633;28;20357;-69
2022/07/30 04:50:41;;;;;;;13.57;8.07;;;;;;;16.92;86.56;100401.53;5108916;28;20139;-70
2022/07/30 04:53:09;;;;;;;16.30;8.57;;;;;;;16.96;86.72;100407.34;5107516;28;20043;-69
2022/07/30 04:55:44;;;;;;;12.57;8.70;;;;;;;16.96;86.17;100402.78;5107408;28;20093;-69
2022/07/30 04:58:12;;;;;;;12.52;8.93;;;;;;;16.99;85.29;100405.03;5107474;28;20040;-69
2022/07/30 05:00:40;;;;;;;12.45;7.72;;;;;;;17.00;85.07;100412.06;5106952;28;20123;-70
2022/07/30 05:03:10;;;;;;;10.02;8.27;;;;;;;17.05;85.17;100414.94;5107218;28;20032;-70
2022/07/30 05:05:41;;;;;;;14.55;8.57;;;;;;;17.07;85.41;100410.16;5090857;28;20432;-69
2022/07/30 05:08:08;;;;;;;12.98;8.90;;;;;;;17.13;85.04;100407.69;5107211;28;20063;-69
2022/07/30 05:10:33;;;;;;;12.05;8.80;;;;;;;17.17;84.82;100419.69;5107007;28;20035;-69
2022/07/30 05:12:59;;;;;;;10.50;8.50;;;;;;;17.22;83.65;100417.19;5108548;28;20036;-69
2022/07/30 05:15:24;;;;;;;10.32;7.60;;;;;;;17.22;84.05;100409.94;5106827;28;20042;-69
2022/07/30 05:17:50;;;;;;;11.68;8.27;;;;;;;17.31;83.29;100415.91;5106967;28;20496;-69
2022/07/30 05:20:16;;;;;;;11.05;7.90;;;;;;;17.39;83.00;100422.91;5106681;28;20034;-70
2022/07/30 05:23:04;;;;;;;10.23;7.47;;;;;;;17.47;82.16;100419.97;5107578;28;20052;-70
2022/07/30 05:25:30;;;;;;;14.57;7.90;;;;;;;17.54;81.79;100418.06;5106891;28;20111;-69
2022/07/30 05:28:07;;;;;;;13.20;8.20;;;;;;;17.61;81.48;100425.09;5106944;28;20039;-69
2022/07/30 05:30:36;;;;;;;11.93;7.93;;;;;;;17.68;80.87;100416.97;5106532;28;20127;-70
2022/07/30 05:33:01;;;;;;;13.65;7.95;;;;;;;17.76;80.25;100419.44;5099501;28;20036;-70
2022/07/30 05:35:27;;;;;;;13.05;8.30;;;;;;;17.88;79.53;100422.28;5093074;28;20088;-53
2022/07/30 05:37:52;;;;;;;8.68;7.70;;;;;;;18.01;78.62;100426.75;5093288;28;20136;-49
2022/07/30 05:40:18;;;;;;;16.27;8.25;;;;;;;18.09;78.56;100429.19;5092966;28;20032;-46
2022/07/30 05:43:03;;;;;;;12.30;7.93;;;;;;;18.23;77.88;100425.34;5093138;28;20036;-46
2022/07/30 05:45:28;;;;;;;14.57;7.97;;;;;;;18.33;77.46;100427.56;5093007;28;20511;-50
2022/07/30 05:47:54;;;;;;;13.82;8.07;;;;;;;18.36;77.54;100429.81;5093130;28;20130;-46
2022/07/30 05:50:19;;;;;;;15.27;8.25;;;;;;;18.39;77.36;100422.13;5092766;28;20434;-48
2022/07/30 05:52:45;;;;;;;10.93;7.55;;;;;;;18.48;77.12;100422.66;5093009;28;20491;-46
2022/07/30 05:55:29;;;;;;;9.90;7.00;;;;;;;18.63;76.22;100430.41;5094421;28;20117;-46
2022/07/30 05:58:18;;;;;;;10.30;7.13;;;;;;;18.72;76.36;100425.59;5091016;28;20056;-51
2022/07/30 06:00:43;;;;;;;8.02;6.53;;;;;;;18.79;76.04;100424.50;5093817;28;20092;-48
2022/07/30 06:03:09;;;;;;;9.65;6.85;;;;;;;18.89;75.64;100419.38;5092789;28;20093;-48
2022/07/30 06:05:58;;;;;;;9.60;7.10;;;;;;;19.02;74.49;100423.00;5092615;28;20503;-46
2022/07/30 06:08:24;;;;;;;10.38;6.97;;;;;;;19.15;72.39;100426.38;5092755;28;20517;-46
2022/07/30 06:10:50;;;;;;;12.55;7.68;;;;;;;19.28;71.82;100432.69;5092355;28;20118;-46
2022/07/30 06:13:15;;;;;;;12.32;7.50;;;;;;;19.45;70.96;100436.44;5092530;28;20044;-48
2022/07/30 06:15:41;;;;;;;7.85;6.47;;;;;;;19.60;69.29;100442.28;5092426;28;20043;-47
2022/07/30 06:18:07;;;;;;;10.02;6.20;;;;;;;19.69;69.24;100438.22;5093771;28;20032;-47
2022/07/30 06:20:48;;;;;;;7.68;5.47;;;;;;;19.82;68.64;100441.78;5091986;28;20032;-47
2022/07/30 06:23:34;;;;;;;10.65;6.38;;;;;;;19.96;67.08;100444.09;5092165;28;20591;-47
2022/07/30 06:26:14;;;;;;;8.73;5.78;;;;;;;20.09;66.90;100447.66;5092223;28;20036;-48
2022/07/30 06:28:40;;;;;;;10.00;5.88;;;;;;;20.11;67.17;100445.53;5092153;28;20512;-49
2022/07/30 06:31:31;;;;;;;7.32;5.32;;;;;;;20.29;65.97;100445.47;5092139;28;20504;-47
2022/07/30 06:33:57;;;;;;;7.78;6.05;;;;;;;20.36;65.71;100442.66;5092190;28;20127;-46
2022/07/30 06:36:24;;;;;;;8.45;5.82;;;;;;;20.42;65.30;100445.25;5092028;28;20058;-49
2022/07/30 06:39:01;;;;;;;8.38;5.97;;;;;;;20.53;64.85;100441.75;5093236;28;20067;-51
2022/07/30 06:42:05;;;;;;;8.75;5.63;;;;;;;20.59;65.41;100445.41;5093061;28;20044;-50
2022/07/30 06:44:59;;;;;;;10.05;5.70;;;;;;;20.65;65.10;100452.59;5092704;28;20036;-49
2022/07/30 06:47:27;;;;;;;8.55;6.03;;;;;;;20.78;64.44;100454.25;5091837;28;20062;-48
2022/07/30 06:49:55;;;;;;;9.18;5.80;;;;;;;20.90;63.55;100452.38;5091639;28;20101;-47
2022/07/30 06:52:21;;;;;;;9.18;5.35;;;;;;;21.00;62.53;100454.50;5091732;28;20035;-48
2022/07/30 06:54:49;;;;;;;10.77;5.28;;;;;;;21.06;61.53;100457.06;5091787;28;20046;-46
2022/07/30 06:57:37;;;;;;;9.88;5.13;;;;;;;21.15;61.55;100457.53;5091603;28;20043;-46
2022/07/30 07:00:07;;;;;;;8.80;5.07;;;;;;;21.18;61.44;100462.47;5075289;28;20047;-47
2022/07/30 07:02:38;;;;;;;10.23;5.47;;;;;;;21.26;60.18;100464.00;5091403;28;20039;-51
2022/07/30 07:05:10;;;;;;;7.35;5.18;;;;;;;21.30;60.56;100460.59;5091394;28;20044;-48
2022/07/30 07:07:36;;;;;;;8.55;5.30;;;;;;;21.34;60.53;100458.25;5091476;28;20051;-51
2022/07/30 07:10:02;;;;;;;7.47;5.43;;;;;;;21.39;59.73;100464.59;5092488;28;20074;-62
2022/07/30 07:12:48;;;;;;;7.88;4.68;;;;;;;21.48;60.39;100469.63;5091701;28;20166;-62
2022/07/30 07:15:17;;;;;;;7.63;5.68;;;;;;;21.52;59.86;100460.78;5091253;28;20078;-62
2022/07/30 07:17:42;;;;;;;8.10;4.72;;;;;;;21.54;60.42;100461.38;5091602;28;20116;-62
2022/07/30 07:20:37;;;;;;;6.55;5.57;;;;;;;21.71;59.86;100466.84;5087638;28;20051;-61
2022/07/30 07:23:06;;;;;;;7.00;5.40;;;;;;;21.87;59.11;100468.78;5091183;28;20046;-62
2022/07/30 07:25:32;;;;;;;7.57;5.40;;;;;;;21.89;59.08;100471.25;5091118;28;20036;-61
2022/07/30 07:27:57;;;;;;;8.90;5.47;;;;;;;21.98;58.71;100474.41;5074300;28;20059;-61
2022/07/30 07:30:23;;;;;;;8.25;5.22;;;;;;;22.00;59.19;100469.56;5090669;28;20072;-61
2022/07/30 07:32:48;;;;;;;6.13;4.95;;;;;;;22.08;58.40;100467.28;5090905;28;20059;-60
2022/07/30 07:35:14;;;;;;;8.55;5.13;;;;;;;22.14;59.36;100460.09;5090795;28;20119;-61
2022/07/30 07:37:43;;;;;;;11.18;5.03;;;;;;;22.32;58.19;100459.06;5090937;28;20044;-61
2022/07/30 07:40:16;;;;;;;6.63;4.70;;;;;;;22.43;56.85;100461.69;5090687;28;20168;-61
2022/07/30 07:42:42;;;;;;;9.43;5.03;;;;;;;22.50;57.92;100450.69;5090926;28;20040;-61
2022/07/30 07:45:08;;;;;;;6.00;4.85;;;;;;;22.64;56.99;100457.41;5090880;28;20024;-61
2022/07/30 07:47:46;;;;;;;9.98;6.30;;;;;;;22.84;56.78;100448.75;5090640;28;20032;-60
2022/07/30 07:50:18;;;;;;;8.00;4.80;;;;;;;23.03;55.98;100457.47;5090807;28;20039;-61
2022/07/30 07:52:44;;;;;;;6.45;4.32;;;;;;;23.04;56.00;100450.97;5091984;28;20028;-61
2022/07/30 07:55:10;;;;;;;6.35;4.63;;;;;;;23.07;56.54;100449.63;5090397;28;20059;-61
2022/07/30 07:57:42;;;;;;;6.37;4.50;;;;;;;23.24;55.43;100453.13;5091911;28;20566;-61
2022/07/30 08:00:13;;;;;;;6.65;4.50;;;;;;;23.28;55.51;100448.84;5090347;28;20027;-61
2022/07/30 08:02:45;;;;;;;7.05;4.10;;;;;;;23.34;55.76;100442.38;5091709;28;20062;-60
2022/07/30 08:05:12;;;;;;;10.23;3.97;;;;;;;23.57;52.37;100449.47;5090385;28;20036;-60
2022/07/30 08:07:49;;;;;;;5.03;4.50;;;;;;;23.73;51.65;100445.03;5090490;28;20032;-60
2022/07/30 08:10:47;;;;;;;7.53;3.80;;;;;;;23.74;52.69;100449.44;5078849;28;20040;-60
2022/07/30 08:13:32;;;;;;;6.10;4.97;;;;;;;23.87;52.43;100454.47;5091825;28;20046;-61
2022/07/30 08:16:16;;;;;;;7.60;4.95;;;;;;;23.92;52.22;100454.50;5091722;28;20055;-61
2022/07/30 08:18:50;;;;;;;7.55;4.70;;;;;;;24.03;52.16;100445.38;5091627;28;20044;-61
2022/07/30 08:21:20;;;;;;;6.78;4.22;;;;;;;24.05;51.33;100453.25;5089867;28;20039;-60
2022/07/30 08:23:46;;;;;;;5.95;4.72;;;;;;;24.08;51.55;100444.59;5090218;28;20036;-61
2022/07/30 08:26:11;;;;;;;5.85;3.55;;;;;;;24.15;50.90;100456.09;5056772;28;20078;-61
2022/07/30 08:28:37;;;;;;;7.00;3.70;;;;;;;24.41;50.68;100459.91;5090173;28;20136;-60
2022/07/30 08:31:05;;;;;;;5.32;4.10;;;;;;;24.59;49.35;100462.22;5090017;28;20032;-60
2022/07/30 08:33:31;;;;;;;6.20;3.60;;;;;;;24.66;49.24;100453.03;5092430;28;20084;-61
2022/07/30 08:35:57;;;;;;;5.60;4.10;;;;;;;24.87;48.96;100452.88;5073326;28;20120;-61
2022/07/30 08:38:22;;;;;;;4.85;3.75;;;;;;;24.90;48.37;100446.09;5090042;28;20032;-61
2022/07/30 08:40:48;;;;;;;6.30;3.47;;;;;;;24.96;49.07;100449.66;5089704;28;20411;-60
2022/07/30 08:43:14;;;;;;;4.60;3.17;;;;;;;25.05;48.38;100454.41;5090768;28;20043;-61
2022/07/30 08:45:42;;;;;;;6.70;4.70;;;;;;;25.03;47.80;100445.63;5089962;28;20105;-60
2022/07/30 08:48:29;;;;;;;9.48;4.70;;;;;;;25.10;47.20;100454.44;5090041;28;20089;-61
2022/07/30 08:50:55;;;;;;;5.63;3.00;;;;;;;25.13;48.03;100451.16;5089844;28;20576;-61
2022/07/30 08:53:48;;;;;;;5.38;3.80;;;;;;;25.26;48.37;100444.41;5090096;28;20123;-61
2022/07/30 08:56:14;;;;;;;4.80;3.83;;;;;;;25.36;46.67;100452.63;5089936;28;20054;-61
2022/07/30 08:58:41;;;;;;;4.82;3.30;;;;;;;25.56;45.78;100443.72;5089723;28;20506;-61
2022/07/30 09:01:07;;;;;;;4.20;3.60;;;;;;;25.62;44.83;100444.53;5089482;28;20070;-61
2022/07/30 09:03:36;;;;;;;5.20;3.77;;;;;;;25.76;45.97;100443.00;5091181;28;20396;-60
2022/07/30 09:06:03;;;;;;;5.38;3.40;;;;;;;25.84;43.64;100444.38;5089982;28;20039;-61
2022/07/30 09:08:29;;;;;;;4.32;3.28;;;;;;;25.96;43.63;100447.69;5091942;28;20626;-61
2022/07/30 09:10:55;;;;;;;8.95;4.28;;;;;;;26.14;43.48;100444.41;5093462;28;20028;-61
2022/07/30 09:13:29;;;;;;;4.97;2.60;;;;;;;26.32;42.13;100442.25;5094824;28;20115;-61
2022/07/30 09:15:57;;;;;;;6.80;2.83;;;;;;;26.38;42.20;100441.97;5093548;28;20036;-62
2022/07/30 09:18:28;;;;;;;;;;;;;;;26.56;41.93;100456.22;5093911;28;20396;-61
2022/07/30 09:20:54;;;;;;;4.05;2.60;;;;;;;26.77;41.46;100453.16;5093494;28;20347;-59
2022/07/30 09:23:20;;;;;;;4.05;3.00;;;;;;;26.88;39.77;100456.72;5093385;28;20040;-58
2022/07/30 09:26:05;;;;;;;7.53;2.58;;;;;;;27.09;39.38;100460.25;5094466;28;20048;-58
2022/07/30 09:28:39;;;;;;;3.70;2.40;;;;;;;27.22;40.26;100453.38;5094797;28;20039;-60
2022/07/30 09:31:16;;;;;;;4.18;2.60;;;;;;;27.35;39.66;100446.47;5094604;28;20040;-56
2022/07/30 09:34:01;;;;;;;3.53;2.80;;;;;;;27.55;40.85;100444.47;5110294;28;20048;-57
2022/07/30 09:36:46;;;;;;;4.93;2.92;;;;;;;27.85;40.97;100446.25;5115170;28;20169;-60
2022/07/30 09:39:38;;;;;;;4.90;3.90;;;;;;;28.03;40.06;100443.94;5114753;27;20040;-59
2022/07/30 09:42:27;;;;;;;;;;;;;;;27.46;39.32;100442.63;5113839;28;20446;-56
2022/07/30 09:45:06;;;;;;;4.60;2.60;;;;;;;27.72;39.45;100446.06;5113774;28;20237;-56
2022/07/30 09:47:32;;;;;;;5.63;2.95;;;;;;;27.76;37.63;100439.72;5096377;28;20027;-56
2022/07/30 09:50:07;;;;;;;10.48;2.78;;;;;;;27.33;38.15;100437.75;5114473;28;20042;-58
2022/07/30 09:52:32;;;;;;;4.30;2.50;;;;;;;27.50;38.89;100438.19;5113397;28;20130;-55
2022/07/30 09:54:58;;;;;;;4.80;2.45;;;;;;;27.85;37.18;100432.59;5113242;28;20119;-60
2022/07/30 09:57:27;;;;;;;5.43;3.05;;;;;;;28.21;38.08;100432.31;5096487;28;20500;-57
2022/07/30 10:00:00;;;;;;;6.68;2.85;;;;;;;28.53;38.12;100433.72;5112915;28;20551;-55
2022/07/30 10:02:30;;;;;;;6.05;2.80;;;;;;;28.53;38.51;100439.19;5113036;28;20035;-58
2022/07/30 10:05:17;;;;;;;7.43;2.58;;;;;;;28.65;36.25;100434.16;5114230;28;20050;-59
2022/07/30 10:07:55;;;;;;;4.43;2.97;;;;;;;29.01;36.26;100428.31;5113166;28;20062;-60
2022/07/30 10:10:23;;;;;;;3.25;2.60;;;;;;;29.38;36.07;100428.44;5112654;28;20067;-58
2022/07/30 10:12:52;;;;;;;6.68;2.20;;;;;;;29.38;36.94;100433.91;5112862;28;20028;-60
2022/07/30 10:15:20;;;;;;;3.92;2.67;;;;;;;29.28;35.70;100431.31;5114056;28;20039;-61
2022/07/30 10:17:47;;;;;;;5.15;2.70;;;;;;;29.27;35.44;100426.09;5095875;28;20036;-61
2022/07/30 10:20:22;;;;;;;3.40;2.25;;;;;;;29.45;35.25;100428.88;5112368;28;20027;-58
2022/07/30 10:23:07;;;;;;;5.15;3.10;;;;;;;29.28;34.67;100420.34;5114074;28;20084;-58
2022/07/30 10:25:33;;;;;;;;;;;;;;;28.96;35.99;100433.88;5114299;28;20082;-61
2022/07/30 10:28:10;;;;;;;3.75;2.30;;;;;;;29.39;36.41;100424.56;5113913;28;19919;-60
2022/07/30 10:30:36;;;;;;;3.67;2.25;;;;;;;29.81;35.56;100413.88;5113892;28;20123;-56
2022/07/30 10:33:02;;;;;;;4.80;2.50;;;;;;;30.07;35.03;100408.81;5113808;28;20130;-59
2022/07/30 10:35:28;;;;;;;4.18;2.42;;;;;;;30.41;33.24;100398.38;5113723;28;20047;-58
2022/07/30 10:37:56;;;;;;;3.75;2.30;;;;;;;30.27;34.12;100401.09;5113747;28;20043;-58
2022/07/30 10:40:36;;;;;;;3.80;2.67;;;;;;;29.81;34.64;100413.88;5111994;28;20043;-59
2022/07/30 10:43:36;;;;;;;4.63;2.53;;;;;;;29.84;34.72;100407.78;5112399;28;20487;-60
2022/07/30 10:46:22;;;;;;;3.70;2.35;;;;;;;29.62;35.61;100400.97;5113630;28;20084;-56
2022/07/30 10:48:47;;;;;;;4.65;2.38;;;;;;;29.37;35.80;100407.59;5109386;28;20598;-58
2022/07/30 10:51:13;;;;;;;3.08;2.35;;;;;;;29.69;34.54;100395.13;5113270;28;20130;-57
2022/07/30 10:53:44;;;;;;;5.22;2.50;;;;;;;30.21;33.83;100396.78;5113524;28;20114;-58
2022/07/30 10:56:23;;;;;;;4.45;2.20;;;;;;;30.46;32.79;100398.28;5113442;28;20401;-57
2022/07/30 10:58:57;;;;;;;4.68;2.65;;;;;;;31.22;32.07;100396.00;5113188;28;20552;-55
2022/07/30 11:01:24;;;;;;;3.40;1.90;;;;;;;31.27;31.09;100389.63;5113110;28;20077;-57
2022/07/30 11:04:27;;;;;;;4.33;3.23;;;;;;;31.04;32.08;100395.00;5113121;28;20051;-59
2022/07/30 11:07:26;;;;;;;3.40;2.35;;;;;;;30.93;31.79;100398.28;5113112;28;20035;-55
2022/07/30 11:09:57;;;;;;;4.28;2.05;;;;;;;31.64;31.03;100407.78;5112653;28;20122;-56
2022/07/30 11:12:48;;;;;;;3.25;1.80;;;;;;;32.23;30.41;100394.84;5113179;28;20074;-57
2022/07/30 11:15:14;;;;;;;2.00;1.73;;;;;;;32.49;30.22;100388.69;5112895;28;20035;-57
2022/07/30 11:18:04;;;;;;;3.63;2.00;;;;;;;33.13;28.68;100389.16;5113038;28;20039;-59
2022/07/30 11:20:31;;;;;;;3.38;1.70;;;;;;;33.28;29.06;100383.16;5112397;28;20387;-55
2022/07/30 11:23:19;;;;;;;2.92;1.70;;;;;;;33.29;27.39;100392.25;5111661;28;20101;-57
2022/07/30 11:25:46;;;;;;;6.18;2.28;;;;;;;32.70;27.25;100391.72;5112751;28;20183;-59
2022/07/30 11:28:40;;;;;;;4.72;2.92;;;;;;;33.03;26.65;100378.38;5094625;28;20036;-61
2022/07/30 11:31:25;;;;;;;5.72;3.20;;;;;;;33.09;27.33;100377.94;5111900;28;20035;-62
2022/07/30 11:33:50;;;;;;;4.00;1.70;;;;;;;32.55;28.70;100379.16;5112610;28;20119;-62
2022/07/30 11:36:16;;;;;;;5.30;3.20;;;;;;;33.01;28.28;100375.16;5111486;28;20469;-61
2022/07/30 11:38:56;;;;;;;2.90;1.90;;;;;;;33.27;28.32;100370.50;5112620;28;20126;-57
2022/07/30 11:41:22;;;;;;;4.57;2.28;;;;;;;32.97;27.94;100361.16;5112295;28;20032;-58
2022/07/30 11:43:47;;;;;;;4.53;1.70;;;;;;;32.16;29.14;100366.09;5112580;28;20024;-62
2022/07/30 11:46:21;;;;;;;3.67;1.70;;;;;;;32.47;28.22;100371.63;5111253;28;20630;-62
2022/07/30 11:48:58;;;;;;;2.28;1.75;;;;;;;33.20;27.43;100359.94;5112235;28;20092;-62
2022/07/30 11:51:24;;;;;;;4.50;2.05;;;;;;;33.49;27.89;100377.84;5093731;28;20035;-62
2022/07/30 11:54:01;;;;;;;4.07;1.83;;;;;;;33.87;26.09;100369.75;5112179;28;20637;-62
2022/07/30 11:56:26;;;;;;;;;;;;;;;33.32;26.94;100364.00;5112891;28;20289;-61
2022/07/30 11:59:00;;;;;;;3.93;2.13;;;;;;;33.30;27.08;100366.28;5111211;28;19968;-62
2022/07/30 12:01:26;;;;;;;3.38;1.90;;;;;;;32.94;27.12;100365.41;5112171;28;20027;-62
2022/07/30 12:03:51;;;;;;;4.07;2.70;;;;;;;32.90;28.08;100360.81;5077219;28;20406;-62
2022/07/30 12:06:18;;;;;;;2.37;1.60;;;;;;;32.77;26.68;100362.53;5093962;28;20511;-61
2022/07/30 12:08:49;;;;;;;3.17;1.77;;;;;;;32.91;27.61;100365.22;5111987;28;20130;-62
2022/07/30 12:11:15;;;;;;;3.45;2.10;;;;;;;32.98;27.16;100361.97;5111845;28;20046;-61
2022/07/30 12:13:44;;;;;;;2.63;1.80;;;;;;;32.94;28.68;100365.41;5110856;28;20036;-62
2022/07/30 12:16:12;;;;;;;1.80;1.42;;;;;;;33.52;27.02;100351.53;5110699;28;20036;-61
2022/07/30 12:18:37;;;;;;;2.08;1.48;;;;;;;33.95;25.67;100346.84;5093978;28;20368;-62
2022/07/30 12:21:10;;;;;;;1.87;1.53;;;;;;;34.45;26.75;100339.94;5111557;28;20035;-62
2022/07/30 12:23:37;;;;;;;2.28;1.63;;;;;;;33.47;25.58;100347.81;5112035;28;20063;-61
2022/07/30 12:26:03;;;;;;;2.53;1.52;;;;;;;33.16;26.13;100339.63;5112027;28;20476;-62
2022/07/30 12:28:32;;;;;;;2.55;1.45;;;;;;;33.43;26.40;100348.78;5093761;28;20488;-62
2022/07/30 12:30:59;;;;;;;2.67;1.75;;;;;;;33.13;27.09;100350.53;5111410;28;20515;-61
2022/07/30 12:33:25;;;;;;;2.17;1.58;;;;;;;32.62;26.42;100336.22;5111770;28;20460;-62
2022/07/30 12:35:56;;;;;;;2.80;1.40;;;;;;;32.54;26.92;100322.38;5111770;28;20115;-61
2022/07/30 12:38:23;;;;;;;1.92;1.38;;;;;;;32.85;27.11;100328.66;5111819;28;20273;-62
2022/07/30 12:40:50;;;;;;;2.00;1.30;;;;;;;33.26;26.29;100338.53;5093679;28;20035;-62
2022/07/30 12:43:16;;;;;;;3.35;1.60;;;;;;;32.84;27.58;100338.06;5113643;28;20109;-61
2022/07/30 12:45:42;;;;;;;2.13;1.57;;;;;;;32.17;27.29;100334.66;5115877;28;20501;-63
2022/07/30 12:48:11;;;;;;;2.78;1.77;;;;;;;31.86;28.36;100324.41;5115953;28;20071;-61
2022/07/30 12:50:37;;;;;;;3.08;1.13;;;;;;;32.02;28.00;100317.41;5115642;28;20054;-62
2022/07/30 12:53:05;;;;;;;2.85;1.30;;;;;;;32.80;27.05;100325.22;5115748;28;20130;-62
2022/07/30 12:55:32;;;;;;;1.47;1.27;;;;;;;33.15;26.55;100317.88;5116032;28;20075;-63
2022/07/30 12:58:02;;;;;;;5.13;1.20;;;;;;;32.59;28.16;100316.72;5115687;28;20039;-63
2022/07/30 13:00:34;;;;;;;2.22;1.20;;;;;;;33.24;27.10;100315.13;5115361;28;20035;-63
2022/07/30 13:03:00;;;;;;;2.10;1.10;;;;;;;33.60;26.54;100310.13;5115566;28;20044;-60
2022/07/30 13:05:46;;;;;;;2.23;1.60;;;;;;;33.16;26.66;100312.03;5115563;28;20105;-60
2022/07/30 13:08:11;;;;;;;2.33;1.40;;;;;;;33.07;27.00;100310.41;5107239;28;20036;-58
2022/07/30 13:10:37;;;;;;;1.63;1.20;;;;;;;32.59;26.40;100305.69;5084088;28;20043;-59
2022/07/30 13:13:03;;;;;;;2.05;1.50;;;;;;;32.05;27.61;100294.72;5085673;28;20036;-62
2022/07/30 13:15:29;;;;;;;2.37;1.30;;;;;;;31.19;28.71;100294.84;5083949;28;20043;-62
2022/07/30 13:17:55;;;;;;;3.13;1.07;;;;;;;30.96;29.27;100295.91;5084334;28;20397;-61
2022/07/30 13:20:21;;;;;;;3.20;1.27;;;;;;;31.06;29.61;100307.50;5083294;28;20043;-62
2022/07/30 13:22:46;;;;;;;1.30;1.20;;;;;;;31.04;28.87;100293.25;5084829;28;20382;-61
2022/07/30 13:25:12;;;;;;;3.83;1.35;;;;;;;30.98;29.69;100288.97;5084401;28;20042;-60
2022/07/30 13:27:38;;;;;;;1.05;0.95;;;;;;;31.20;29.22;100290.16;5083397;28;20098;-61
2022/07/30 13:30:04;;;;;;;4.72;1.30;;;;;;;31.65;28.62;100284.72;5084843;28;20024;-62
2022/07/30 13:32:30;;;;;;;2.30;1.60;;;;;;;31.83;28.69;100286.50;5084036;28;20109;-64
2022/07/30 13:34:56;;;;;;;2.88;1.10;;;;;;;31.85;28.33;100274.03;5083424;28;20286;-62
2022/07/30 13:37:21;;;;;;;1.40;1.10;;;;;;;32.00;29.24;100280.28;5084886;28;20124;-63
2022/07/30 13:39:47;;;;;;;3.17;1.20;;;;;;;32.06;28.85;100290.84;5083305;28;20166;-62
2022/07/30 13:42:13;;;;;;;2.13;1.35;;;;;;;31.76;28.64;100280.59;5082263;28;20032;-62
2022/07/30 13:44:39;;;;;;;2.60;1.20;;;;;;;31.13;29.19;100278.75;5085026;28;20503;-62
2022/07/30 13:47:06;;;;;;;2.83;1.17;;;;;;;30.70;29.85;100268.94;5083149;28;20028;-62
2022/07/30 13:49:35;;;;;;;3.10;1.50;;;;;;;30.28;30.62;100286.53;5094061;28;20587;-62
2022/07/30 13:52:00;;;;;;;4.43;1.55;;;;;;;30.19;31.02;100278.19;5094105;28;20036;-62
2022/07/30 13:54:28;;;;;;;3.65;1.88;;;;;;;30.29;30.99;100277.16;5083546;28;20033;-62
2022/07/30 13:56:53;;;;;;;4.70;2.05;;;;;;;30.11;30.58;100281.59;5072704;28;20106;-62
2022/07/30 13:59:18;;;;;;;1.63;1.35;;;;;;;30.04;31.74;100280.34;5073642;28;20068;-61
2022/07/30 14:01:44;;;;;;;1.60;1.45;;;;;;;29.82;31.03;100279.06;5072667;28;20028;-62
2022/07/30 14:04:09;;;;;;;13.00;3.28;;;;;;;29.74;31.07;100271.53;5073809;28;20037;-62
2022/07/30 14:06:35;;;;;;;8.55;2.38;;;;;;;29.87;31.66;100267.19;5073739;28;20037;-62
2022/07/30 14:09:00;;;;;;;15.57;2.90;;;;;;;29.74;31.66;100266.03;5072248;28;20048;-62
2022/07/30 14:11:26;;;;;;;6.13;2.15;;;;;;;29.82;30.92;100250.81;5073630;28;20135;-62
2022/07/30 14:13:51;;;;;;;2.35;1.60;;;;;;;30.04;31.55;100259.19;5073758;28;20087;-61
2022/07/30 14:16:18;;;;;;;2.97;1.40;;;;;;;29.92;32.33;100259.66;5072498;28;20056;-61
2022/07/30 14:18:44;;;;;;;3.33;1.60;;;;;;;30.09;31.97;100255.53;5073491;28;20123;-61
2022/07/30 14:21:09;;;;;;;7.22;2.30;;;;;;;30.05;30.97;100246.25;5073432;28;20113;-62
2022/07/30 14:23:35;;;;;;;3.40;1.33;;;;;;;30.12;31.58;100244.78;5073639;28;20409;-61
2022/07/30 14:26:01;;;;;;;1.20;1.10;;;;;;;30.37;31.68;100248.97;5072023;28;20041;-62
2022/07/30 14:28:26;;;;;;;26.25;3.88;;;;;;;30.48;31.77;100247.66;5055290;28;20051;-62
2022/07/30 14:30:52;;;;;;;1.60;1.20;;;;;;;30.58;31.01;100243.06;5072895;28;20028;-60
2022/07/30 14:33:17;;;;;;;4.65;1.85;;;;;;;30.63;31.10;100251.22;5072019;28;20435;-61
2022/07/30 14:35:42;;;;;;;2.72;1.38;;;;;;;30.53;29.81;100249.50;5071802;28;20577;-60
2022/07/30 14:38:08;;;;;;;2.67;1.30;;;;;;;30.39;29.88;100244.00;5072962;28;20063;-61
2022/07/30 14:40:33;;;;;;;3.33;1.50;;;;;;;30.40;29.73;100240.13;5072816;28;20511;-61
2022/07/30 14:42:59;;;;;;;7.28;1.75;;;;;;;30.29;29.45;100244.19;5073177;28;20496;-60
2022/07/30 14:45:24;;;;;;;6.25;1.30;;;;;;;30.43;29.48;100250.50;5072866;28;20067;-60
2022/07/30 14:47:50;;;;;;;2.45;1.23;;;;;;;30.34;29.32;100244.09;5071685;28;20580;-58
2022/07/30 14:50:15;;;;;;;2.20;1.10;;;;;;;30.24;30.89;100244.28;5071454;28;20486;-60
2022/07/30 14:52:41;;;;;;;1.33;1.13;;;;;;;30.23;28.97;100246.22;5072840;28;20047;-60
2022/07/30 14:55:07;;;;;;;2.28;1.40;;;;;;;30.13;28.86;100240.13;5071514;28;20036;-60
2022/07/30 14:57:33;;;;;;;1.67;1.10;;;;;;;30.22;28.53;100238.28;5072969;28;20033;-60
2022/07/30 14:59:59;;;;;;;1.17;0.85;;;;;;;30.25;29.62;100238.47;5072466;28;20047;-61
2022/07/30 15:02:24;;;;;;;3.47;1.40;;;;;;;30.19;28.84;100236.97;5072694;28;20041;-61
2022/07/30 15:04:50;;;;;;;6.38;1.25;;;;;;;30.09;28.54;100241.81;5054408;28;20093;-60
2022/07/30 15:07:15;;;;;;;1.75;1.20;;;;;;;30.17;28.43;100239.19;5070804;28;20478;-60
2022/07/30 15:09:40;;;;;;;1.80;1.00;;;;;;;30.23;28.28;100234.41;5070927;28;20044;-60
2022/07/30 15:12:08;;;;;;;2.78;0.93;;;;;;;30.27;28.18;100222.53;5072312;28;20076;-60
2022/07/30 15:14:35;;;;;;;1.58;1.10;;;;;;;30.16;27.95;100226.59;5071047;28;20033;-57
2022/07/30 15:17:01;;;;;;;2.72;1.17;;;;;;;30.20;28.06;100235.03;5072210;28;20517;-60
2022/07/30 15:19:26;;;;;;;7.30;1.65;;;;;;;30.23;27.81;100239.91;5071891;28;20067;-60
2022/07/30 15:21:52;;;;;;;1.50;0.80;;;;;;;30.37;28.30;100231.69;5072370;28;20393;-60
2022/07/30 15:24:17;;;;;;;1.10;0.70;;;;;;;30.47;28.71;100235.03;5072183;28;20036;-61
2022/07/30 15:26:43;;;;;;;1.00;0.90;;;;;;;30.31;27.21;100236.44;5072137;28;20040;-60
2022/07/30 15:29:08;;;;;;;2.10;0.90;;;;;;;30.16;27.87;100232.06;5071958;28;20071;-61
2022/07/30 15:31:33;;;;;;;1.60;1.15;;;;;;;30.23;28.59;100234.41;5070891;28;20087;-60
2022/07/30 15:33:59;;;;;;;1.58;0.95;;;;;;;30.11;27.79;100234.09;5072042;28;20504;-60
2022/07/30 15:36:25;;;;;;;1.40;0.98;;;;;;;30.12;27.29;100238.47;5072055;28;20036;-60
2022/07/30 15:38:50;;;;;;;1.52;0.90;;;;;;;30.20;27.60;100233.13;5053902;28;20048;-61
2022/07/30 15:41:15;;;;;;;1.13;0.85;;;;;;;30.21;27.33;100228.44;5053864;28;20135;-61
2022/07/30 15:43:41;;;;;;;1.55;1.10;;;;;;;30.23;28.57;100224.25;5071849;28;20040;-58
2022/07/30 15:46:06;;;;;;;1.23;1.00;;;;;;;30.23;28.05;100224.25;5071790;28;20493;-61
2022/07/30 15:48:32;;;;;;;2.88;1.10;;;;;;;30.17;29.85;100230.94;5071880;28;20626;-61
2022/07/30 15:51:01;;;;;;;1.30;0.77;;;;;;;29.90;27.42;100230.91;5070319;28;20033;-62
2022/07/30 15:53:28;;;;;;;0.90;0.90;;;;;;;29.96;27.31;100229.69;5071710;28;20047;-62
2022/07/30 15:55:54;;;;;;;1.67;0.82;;;;;;;29.87;27.67;100224.09;5070422;28;20044;-62
2022/07/30 15:58:19;;;;;;;1.85;1.02;;;;;;;29.84;28.50;100221.94;5070493;28;20037;-53
2022/07/30 16:00:44;;;;;;;2.97;1.00;;;;;;;29.95;28.01;100234.38;5071252;28;20082;-55